x

Ilm3 - 27 Miles Se Of Wrightsville Beach, Nc (41037) Weather Station

5:08 - Sun 23rd Jul 2017 All times are EDT. -4 hours from GMT.

  • Wind
    20mph, 27mph gusts
  • Sea Temp 83°f
  • Ar Temp 83°f
  • Sea Pressure 1011.7mb
  • Ilm3 - 27 Miles Se Of Wrightsville Beach, Nc
  • Ilm3 - 27 Miles Se Of Wrightsville Beach, Nc

More Historic Weather Station data

Upgrade to MSW Pro to gain access to the past 30 days of data for over 8000 Wavebouys and Weather Stations around the globe.

Join Pro

Comparision Forecast

View Surf forecast
   
Dom 07/23 5:08 20 27 mph 1011.7mb 83f 83f
4:08 22 31 mph 1012.1mb 83f 83f
3:08 20 29 mph 1012.6mb 83f 83f
2:08 18 25 mph 1013mb 83f 83f
1:08 20 27 mph 1013.3mb 82f 82f
12:08 20 29 mph 1013.2mb 82f 82f
11:08 20 27 mph 1013.6mb 82f 82f
10:08 20 27 mph 1013.7mb 82f 82f
9:08 20 27 mph 1013.7mb 82f 82f
8:08 20 27 mph 1013.6mb 82f 82f
7:08 20 27 mph 1013.6mb 82f 82f
6:08 18 25 mph 1013.3mb 82f 82f
5:08 18 25 mph 1013mb 82f 82f
4:08 20 27 mph 1012.6mb 82f 82f
3:08 18 25 mph 1013.1mb 82f 82f
2:08 18 25 mph 1013.1mb 82f 82f
1:08 18 25 mph 1013.8mb 82f 82f
12:08 18 22 mph 1014mb 82f 82f
Sáb 07/22 11:08 18 25 mph 1014.1mb 82f 82f
10:08 18 27 mph 1014.3mb 82f 82f
9:08 18 27 mph 1014.1mb 82f 82f
7:08 18 25 mph 1013.5mb 82f 83f
6:08 16 22 mph 1013.4mb 82f 83f
5:08 16 22 mph 1013.6mb 82f 83f
4:08 16 20 mph 1014.2mb 82f 83f
3:08 16 20 mph 1015.1mb 82f 82f
2:08 16 20 mph 1016mb 82f 82f
1:08 16 20 mph 1016.7mb 82f 82f
12:08 16 20 mph 1017.2mb 82f 82f
11:08 13 20 mph 1017.5mb 82f 82f
10:08 13 20 mph 1017.2mb 82f 82f
9:08 13 20 mph 1017mb 81f 82f
8:08 13 20 mph 1016.8mb 81f 82f
7:08 13 20 mph 1015.9mb 81f 81f
6:08 13 18 mph 1015.8mb 81f 81f
5:08 13 18 mph 1015.6mb 81f 81f
4:08 13 18 mph 1015.3mb 81f 81f
3:08 13 20 mph 1015.6mb 81f 81f
2:08 13 20 mph 1015.9mb 81f 82f
1:08 16 22 mph 1016.3mb 81f 82f
12:08 16 22 mph 1016.1mb 81f 82f
Sex 07/21 11:08 18 27 mph 1016.5mb 81f 82f
10:08 18 25 mph 1016.4mb 81f 82f
9:08 18 22 mph 1016.1mb 81f 82f
8:08 16 20 mph 1015.9mb 81f 82f
7:08 16 22 mph 1015.6mb 82f 82f
6:08 16 20 mph 1015.3mb 82f 83f
5:08 16 22 mph 1015.3mb 82f 82f
4:08 16 20 mph 1015.9mb 82f 82f
3:08 16 22 mph 1016.2mb 81f 82f
2:08 13 20 mph 1016.7mb 81f 82f
1:08 11 18 mph 1017.3mb 81f 82f
12:08 13 18 mph 1017.5mb 81f 82f
11:08 13 18 mph 1017.8mb 81f 82f
10:08 13 18 mph 1017.6mb 81f 81f
9:08 11 16 mph 1017.2mb 81f 81f
8:08 11 16 mph 1016.8mb 81f 81f
7:08 13 18 mph 1016.3mb 81f 81f
6:08 11 16 mph 1015.8mb 81f 81f
5:08 11 16 mph 1015.2mb 81f 81f
4:08 11 13 mph 1015.4mb 81f 81f
3:08 11 16 mph 1016mb 81f 81f
2:08 11 16 mph 1016.5mb 81f 81f
1:08 11 18 mph 1016.8mb 81f 81f
12:08 13 18 mph 1017.3mb 81f 82f
Qui 07/20 11:08 13 20 mph 1017.3mb 81f 82f
10:08 16 20 mph 1016.7mb 82f 82f
9:08 13 16 mph 1016.6mb 82f 82f
8:08 11 16 mph 1015.9mb 82f 82f
7:08 11 16 mph 1015.4mb 82f 82f
6:08 9 13 mph 1015.4mb 82f 82f
5:08 9 13 mph 1016.2mb 82f 82f
4:08 9 11 mph 1017.3mb 82f 82f
3:08 7 9 mph 1017.8mb 82f 82f
2:08 7 9 mph 1018.3mb 82f 81f
1:08 2 4 mph 1018.9mb 81f 82f
12:08 2 4 mph 1019.1mb 81f 81f
11:08 2 7 mph 1018.8mb 81f 80f
10:08 7 11 mph 1018.6mb 80f 79f
9:08 9 13 mph 1018.5mb 80f 79f
8:08 13 18 mph 1018.5mb 80f 78f
7:08 13 18 mph 1018mb 80f 78f
6:08 13 18 mph 1017.8mb 81f 78f
5:08 11 13 mph 1017.5mb 81f 79f
4:08 9 11 mph 1017.2mb 81f 80f
3:08 7 11 mph 1017.4mb 81f 80f
2:08 9 11 mph 1017.6mb 81f 80f
1:08 7 9 mph 1018.1mb 81f 80f
12:08 9 11 mph 1018.2mb 82f 81f
Qua 07/19 11:08 9 11 mph 1018.5mb 82f 80f